NJE242 EGPH-LGRP
Flight info
| Callsign | NJE242 |
|---|---|
| Flight time | N/A |
| Altitude | 41000 |
| Route | TLA Y96 HAVEN DCT OTBUN DCT ERKIT N110 DOLAS DCT NAVPI DCT TIVUN DCT ESAMA DCT OSBIT DCT TENLO DCT LAMSI DCT NIDLO DCT VABEK UL603 OLOTA DCT RUGAS DCT GIKAS DCT MES UN139 LURUS UL995 CODIC |
| Aircraft | E190/M-SDE1E2E3FGHIJ3J4J7P2RWXY/LB1D1G1 |
Departure
| Time | N/A |
|---|---|
| Airport | Edinburgh Airport (EGPH) |
Arrival
| Time | 2026-05-05 19:24 |
|---|---|
| Airport | Rhodes International Airport "Diagoras" (LGRP) |
| Time | Latitude | Longitude | Altitude | Speed | Heading |
|---|---|---|---|---|---|
| 2026-05-05 18:20 | 41.34029 | 22.77587 | 41022 ft | 477 kts | 142° |
| 2026-05-05 18:20 | 41.28968 | 22.83220 | 41040 ft | 479 kts | 140° |
| 2026-05-05 18:21 | 41.23786 | 22.88833 | 41026 ft | 483 kts | 141° |
| 2026-05-05 18:21 | 41.18549 | 22.94380 | 41028 ft | 486 kts | 141° |
| 2026-05-05 18:22 | 41.13242 | 22.99979 | 41031 ft | 489 kts | 141° |
| 2026-05-05 18:22 | 41.07917 | 23.05586 | 41023 ft | 492 kts | 141° |
| 2026-05-05 18:23 | 41.02556 | 23.11218 | 41031 ft | 493 kts | 141° |
| 2026-05-05 18:23 | 40.97233 | 23.16798 | 41052 ft | 494 kts | 141° |
| 2026-05-05 18:24 | 40.91871 | 23.22408 | 41054 ft | 495 kts | 141° |
| 2026-05-05 18:24 | 40.87372 | 23.27106 | 41028 ft | 496 kts | 141° |
| 2026-05-05 18:25 | 40.81103 | 23.33637 | 41052 ft | 496 kts | 141° |
| 2026-05-05 18:25 | 40.75664 | 23.39290 | 41041 ft | 496 kts | 141° |
| 2026-05-05 18:26 | 40.70270 | 23.44885 | 41052 ft | 497 kts | 141° |
| 2026-05-05 18:26 | 40.64861 | 23.50485 | 41047 ft | 497 kts | 141° |
| 2026-05-05 18:27 | 40.59427 | 23.56097 | 41048 ft | 498 kts | 141° |
| 2026-05-05 18:27 | 40.53991 | 23.61700 | 41037 ft | 498 kts | 141° |
| 2026-05-05 18:28 | 40.45812 | 23.70107 | 41033 ft | 499 kts | 142° |
| 2026-05-05 18:28 | 40.40369 | 23.75687 | 41030 ft | 500 kts | 142° |
| 2026-05-05 18:29 | 40.34874 | 23.81309 | 41027 ft | 500 kts | 142° |
| 2026-05-05 18:29 | 40.29403 | 23.86894 | 41021 ft | 501 kts | 142° |
| 2026-05-05 18:30 | 40.23944 | 23.92456 | 41023 ft | 501 kts | 142° |
| 2026-05-05 18:30 | 40.18471 | 23.98019 | 41033 ft | 501 kts | 142° |
| 2026-05-05 18:31 | 40.13000 | 24.03570 | 41028 ft | 502 kts | 142° |
| 2026-05-05 18:31 | 40.07491 | 24.09146 | 41037 ft | 502 kts | 142° |
| 2026-05-05 18:32 | 40.01957 | 24.14738 | 41038 ft | 503 kts | 142° |
| 2026-05-05 18:32 | 39.96477 | 24.20262 | 41025 ft | 503 kts | 142° |
| 2026-05-05 18:33 | 39.90937 | 24.25835 | 41023 ft | 503 kts | 142° |
| 2026-05-05 18:33 | 39.85436 | 24.31358 | 41028 ft | 503 kts | 142° |
| 2026-05-05 18:34 | 39.79914 | 24.36889 | 41023 ft | 503 kts | 142° |
| 2026-05-05 18:34 | 39.74369 | 24.42432 | 41023 ft | 502 kts | 142° |
| 2026-05-05 18:35 | 39.68846 | 24.47942 | 41028 ft | 501 kts | 142° |
| 2026-05-05 18:35 | 39.63349 | 24.53415 | 41028 ft | 501 kts | 142° |
| 2026-05-05 18:36 | 39.57815 | 24.58913 | 41020 ft | 501 kts | 142° |
| 2026-05-05 18:36 | 39.52307 | 24.64374 | 41034 ft | 501 kts | 142° |
| 2026-05-05 18:37 | 39.46822 | 24.69881 | 41027 ft | 500 kts | 142° |
| 2026-05-05 18:37 | 39.41371 | 24.75408 | 41030 ft | 500 kts | 142° |
| 2026-05-05 18:38 | 39.35904 | 24.80937 | 41024 ft | 499 kts | 142° |
| 2026-05-05 18:38 | 39.30464 | 24.86427 | 41024 ft | 499 kts | 142° |
| 2026-05-05 18:39 | 39.24985 | 24.91947 | 41025 ft | 499 kts | 142° |
| 2026-05-05 18:39 | 39.19555 | 24.97404 | 41020 ft | 498 kts | 142° |
| 2026-05-05 18:40 | 39.14107 | 25.02870 | 41026 ft | 498 kts | 142° |
| 2026-05-05 18:40 | 39.08638 | 25.08345 | 41030 ft | 499 kts | 142° |
| 2026-05-05 18:41 | 39.03196 | 25.13782 | 41034 ft | 499 kts | 142° |
| 2026-05-05 18:41 | 38.97709 | 25.19253 | 41037 ft | 500 kts | 142° |
| 2026-05-05 18:42 | 38.92232 | 25.24704 | 41037 ft | 500 kts | 142° |
| 2026-05-05 18:42 | 38.86737 | 25.30161 | 41028 ft | 501 kts | 142° |
| 2026-05-05 18:43 | 38.81238 | 25.35612 | 41033 ft | 501 kts | 142° |
| 2026-05-05 18:43 | 38.75750 | 25.41041 | 41027 ft | 501 kts | 142° |
| 2026-05-05 18:44 | 38.70252 | 25.46467 | 41036 ft | 502 kts | 142° |
| 2026-05-05 18:44 | 38.64708 | 25.51930 | 41032 ft | 502 kts | 142° |
| 2026-05-05 18:45 | 38.59222 | 25.57324 | 41034 ft | 502 kts | 142° |
| 2026-05-05 18:45 | 38.53695 | 25.62747 | 41036 ft | 502 kts | 142° |
| 2026-05-05 18:46 | 38.48134 | 25.68194 | 41025 ft | 503 kts | 143° |
| 2026-05-05 18:46 | 38.42640 | 25.73564 | 41027 ft | 503 kts | 143° |
| 2026-05-05 18:47 | 38.37090 | 25.78977 | 41026 ft | 503 kts | 143° |
| 2026-05-05 18:47 | 38.31555 | 25.84367 | 41028 ft | 503 kts | 143° |
| 2026-05-05 18:48 | 38.25931 | 25.89593 | 41029 ft | 501 kts | 152° |
| 2026-05-05 18:48 | 38.19592 | 25.93115 | 41061 ft | 497 kts | 162° |
| 2026-05-05 18:49 | 38.13086 | 25.96088 | 41035 ft | 498 kts | 162° |
| 2026-05-05 18:49 | 38.06582 | 25.99050 | 41031 ft | 498 kts | 162° |
| 2026-05-05 18:50 | 38.00048 | 26.02020 | 41032 ft | 498 kts | 162° |
| 2026-05-05 18:50 | 37.93527 | 26.04978 | 41029 ft | 499 kts | 163° |
| 2026-05-05 18:51 | 37.87022 | 26.07923 | 41032 ft | 499 kts | 162° |
| 2026-05-05 18:51 | 37.80489 | 26.10876 | 41031 ft | 499 kts | 162° |
| 2026-05-05 18:52 | 37.73963 | 26.13819 | 41029 ft | 500 kts | 162° |
| 2026-05-05 18:52 | 37.67418 | 26.16765 | 41038 ft | 500 kts | 162° |
| 2026-05-05 18:53 | 37.60893 | 26.19696 | 41037 ft | 500 kts | 162° |
| 2026-05-05 18:53 | 37.54317 | 26.22645 | 41035 ft | 500 kts | 163° |
| 2026-05-05 18:54 | 37.47805 | 26.25558 | 41043 ft | 501 kts | 163° |
| 2026-05-05 18:54 | 37.41265 | 26.28480 | 41042 ft | 501 kts | 163° |
| 2026-05-05 18:55 | 37.34699 | 26.31408 | 41034 ft | 502 kts | 163° |
| 2026-05-05 18:55 | 37.28119 | 26.34336 | 41045 ft | 502 kts | 163° |
| 2026-05-05 18:56 | 37.21563 | 26.37249 | 41040 ft | 502 kts | 163° |
| 2026-05-05 18:56 | 37.15032 | 26.40148 | 41051 ft | 502 kts | 163° |
| 2026-05-05 18:57 | 37.08460 | 26.43060 | 41052 ft | 503 kts | 163° |
| 2026-05-05 18:57 | 37.01902 | 26.45962 | 41059 ft | 503 kts | 163° |
| 2026-05-05 18:58 | 36.95380 | 26.49150 | 41042 ft | 505 kts | 153° |
| 2026-05-05 18:58 | 36.89748 | 26.54268 | 41058 ft | 507 kts | 136° |
| 2026-05-05 18:59 | 36.85073 | 26.60802 | 41037 ft | 505 kts | 121° |
| 2026-05-05 18:59 | 36.82130 | 26.68661 | 41042 ft | 500 kts | 103° |
| 2026-05-05 19:00 | 36.80210 | 26.76913 | 41022 ft | 500 kts | 111° |
| 2026-05-05 19:00 | 36.78862 | 26.80923 | 40315 ft | 513 kts | 111° |
| 2026-05-05 19:00 | 36.77454 | 26.85024 | 39425 ft | 512 kts | 111° |
| 2026-05-05 19:01 | 36.76057 | 26.89066 | 38554 ft | 508 kts | 111° |
| 2026-05-05 19:01 | 36.74680 | 26.93050 | 37638 ft | 504 kts | 110° |
| 2026-05-05 19:01 | 36.73310 | 26.97003 | 36659 ft | 501 kts | 110° |
| 2026-05-05 19:01 | 36.71928 | 27.00983 | 35726 ft | 496 kts | 110° |
| 2026-05-05 19:02 | 36.70585 | 27.04850 | 34938 ft | 493 kts | 110° |
| 2026-05-05 19:02 | 36.69229 | 27.08748 | 34020 ft | 492 kts | 109° |
| 2026-05-05 19:02 | 36.67870 | 27.12650 | 32972 ft | 490 kts | 109° |
| 2026-05-05 19:02 | 36.66524 | 27.16503 | 31934 ft | 487 kts | 109° |
| 2026-05-05 19:03 | 36.65179 | 27.20348 | 30897 ft | 485 kts | 109° |
| 2026-05-05 19:03 | 36.63854 | 27.24134 | 29868 ft | 482 kts | 109° |
| 2026-05-05 19:03 | 36.62521 | 27.27933 | 28831 ft | 479 kts | 109° |
| 2026-05-05 19:03 | 36.61208 | 27.31675 | 27811 ft | 476 kts | 109° |
| 2026-05-05 19:04 | 36.59892 | 27.35417 | 26780 ft | 472 kts | 109° |
| 2026-05-05 19:04 | 36.58594 | 27.39107 | 25754 ft | 468 kts | 110° |
| 2026-05-05 19:04 | 36.57300 | 27.42779 | 24731 ft | 463 kts | 110° |
| 2026-05-05 19:04 | 36.56021 | 27.46404 | 23715 ft | 459 kts | 110° |
| 2026-05-05 19:05 | 36.54756 | 27.49985 | 22716 ft | 454 kts | 110° |
| 2026-05-05 19:05 | 36.53510 | 27.53508 | 21734 ft | 449 kts | 110° |
| 2026-05-05 19:05 | 36.52262 | 27.57033 | 20733 ft | 443 kts | 110° |
| 2026-05-05 19:05 | 36.51048 | 27.60457 | 19761 ft | 438 kts | 110° |
| 2026-05-05 19:06 | 36.49843 | 27.63855 | 18777 ft | 432 kts | 110° |
| 2026-05-05 19:06 | 36.48646 | 27.67226 | 17784 ft | 426 kts | 111° |
| 2026-05-05 19:06 | 36.47457 | 27.70566 | 16784 ft | 420 kts | 111° |
| 2026-05-05 19:06 | 36.46301 | 27.73815 | 15789 ft | 414 kts | 111° |
| 2026-05-05 19:07 | 36.45149 | 27.77049 | 14792 ft | 409 kts | 111° |
| 2026-05-05 19:07 | 36.44387 | 27.79191 | 14135 ft | 405 kts | 110° |
| 2026-05-05 19:07 | 36.42898 | 27.83375 | 12827 ft | 398 kts | 110° |
| 2026-05-05 19:07 | 36.41783 | 27.86504 | 11823 ft | 392 kts | 110° |
| 2026-05-05 19:08 | 36.40696 | 27.89554 | 10830 ft | 387 kts | 111° |
| 2026-05-05 19:08 | 36.39633 | 27.92531 | 9863 ft | 381 kts | 111° |
| 2026-05-05 19:08 | 36.38569 | 27.95508 | 8852 ft | 376 kts | 111° |
| 2026-05-05 19:08 | 36.37515 | 27.98412 | 7862 ft | 370 kts | 115° |
| 2026-05-05 19:09 | 36.35926 | 28.00885 | 6873 ft | 368 kts | 141° |
| 2026-05-05 19:09 | 36.33671 | 28.02252 | 5925 ft | 363 kts | 167° |
| 2026-05-05 19:09 | 36.31273 | 28.02426 | 5787 ft | 331 kts | 177° |
| 2026-05-05 19:09 | 36.29090 | 28.02741 | 5761 ft | 303 kts | 171° |
| 2026-05-05 19:10 | 36.27055 | 28.03126 | 5471 ft | 289 kts | 171° |
| 2026-05-05 19:10 | 36.25118 | 28.03500 | 5196 ft | 276 kts | 171° |
| 2026-05-05 19:10 | 36.23276 | 28.03860 | 5009 ft | 261 kts | 171° |
| 2026-05-05 19:10 | 36.21544 | 28.04198 | 4973 ft | 240 kts | 171° |
| 2026-05-05 19:11 | 36.19959 | 28.04506 | 4963 ft | 221 kts | 171° |
| 2026-05-05 19:11 | 36.18537 | 28.04929 | 4946 ft | 201 kts | 143° |
| 2026-05-05 19:11 | 36.17744 | 28.06316 | 5022 ft | 206 kts | 83° |
| 2026-05-05 19:11 | 36.18348 | 28.07684 | 5553 ft | 185 kts | 31° |
| 2026-05-05 19:12 | 36.19405 | 28.08618 | 5859 ft | 201 kts | 33° |
| 2026-05-05 19:12 | 36.20639 | 28.09685 | 5936 ft | 218 kts | 32° |
| 2026-05-05 19:12 | 36.21830 | 28.10765 | 5776 ft | 233 kts | 43° |
| 2026-05-05 19:12 | 36.22971 | 28.12324 | 4728 ft | 256 kts | 47° |
| 2026-05-05 19:13 | 36.24126 | 28.14012 | 4151 ft | 251 kts | 44° |
| 2026-05-05 19:13 | 36.25339 | 28.15634 | 3304 ft | 267 kts | 44° |
| 2026-05-05 19:13 | 36.26554 | 28.17347 | 2743 ft | 270 kts | 46° |
| 2026-05-05 19:13 | 36.27777 | 28.19113 | 2417 ft | 262 kts | 43° |
| 2026-05-05 19:14 | 36.28985 | 28.20570 | 2703 ft | 228 kts | 35° |
| 2026-05-05 19:14 | 36.30285 | 28.21647 | 2303 ft | 229 kts | 23° |
| 2026-05-05 19:14 | 36.31831 | 28.22376 | 1298 ft | 252 kts | 10° |
| 2026-05-05 19:14 | 36.33577 | 28.22590 | 1547 ft | 251 kts | 355° |
| 2026-05-05 19:15 | 36.35137 | 28.22406 | 4003 ft | 209 kts | 352° |
| 2026-05-05 19:15 | 36.36581 | 28.22069 | 3426 ft | 222 kts | 343° |
| 2026-05-05 19:15 | 36.37945 | 28.21517 | 3783 ft | 196 kts | 1° |
| 2026-05-05 19:15 | 36.39176 | 28.22099 | 4327 ft | 199 kts | 46° |
| 2026-05-05 19:16 | 36.39702 | 28.23648 | 4901 ft | 206 kts | 79° |
| 2026-05-05 19:16 | 36.40073 | 28.25403 | 4943 ft | 217 kts | 66° |
| 2026-05-05 19:16 | 36.40617 | 28.27165 | 4673 ft | 216 kts | 65° |
| 2026-05-05 19:16 | 36.41145 | 28.28872 | 4403 ft | 213 kts | 65° |
| 2026-05-05 19:17 | 36.41669 | 28.30595 | 4090 ft | 213 kts | 65° |
| 2026-05-05 19:17 | 36.42182 | 28.32304 | 3790 ft | 212 kts | 65° |
| 2026-05-05 19:17 | 36.42689 | 28.34005 | 3485 ft | 211 kts | 65° |
| 2026-05-05 19:17 | 36.43198 | 28.35705 | 3185 ft | 210 kts | 65° |
| 2026-05-05 19:18 | 36.43916 | 28.37202 | 3025 ft | 190 kts | 29° |
| 2026-05-05 19:18 | 36.45071 | 28.37527 | 3069 ft | 163 kts | 346° |
| 2026-05-05 19:18 | 36.46059 | 28.37020 | 3086 ft | 147 kts | 335° |
| 2026-05-05 19:18 | 36.46973 | 28.36406 | 3018 ft | 151 kts | 324° |
| 2026-05-05 19:19 | 36.47481 | 28.35253 | 3031 ft | 159 kts | 279° |
| 2026-05-05 19:19 | 36.47245 | 28.33934 | 2995 ft | 154 kts | 256° |
| 2026-05-05 19:19 | 36.47507 | 28.32575 | 3332 ft | 149 kts | 257° |
| 2026-05-05 19:19 | 36.47163 | 28.31389 | 3556 ft | 153 kts | 257° |
| 2026-05-05 19:20 | 36.46775 | 28.30117 | 3521 ft | 158 kts | 255° |
| 2026-05-05 19:20 | 36.46419 | 28.28819 | 3271 ft | 161 kts | 257° |
| 2026-05-05 19:20 | 36.46057 | 28.27525 | 3001 ft | 157 kts | 257° |
| 2026-05-05 19:20 | 36.45698 | 28.26268 | 2745 ft | 152 kts | 257° |
| 2026-05-05 19:21 | 36.45349 | 28.25060 | 2516 ft | 149 kts | 256° |
| 2026-05-05 19:21 | 36.44998 | 28.23852 | 2309 ft | 148 kts | 257° |
| 2026-05-05 19:21 | 36.44646 | 28.22644 | 2107 ft | 148 kts | 257° |
| 2026-05-05 19:21 | 36.44302 | 28.21464 | 1915 ft | 147 kts | 258° |
| 2026-05-05 19:22 | 36.43955 | 28.20278 | 1717 ft | 144 kts | 258° |
| 2026-05-05 19:22 | 36.43613 | 28.19108 | 1514 ft | 143 kts | 258° |
| 2026-05-05 19:22 | 36.43275 | 28.17951 | 1322 ft | 143 kts | 256° |
| 2026-05-05 19:22 | 36.42939 | 28.16806 | 1129 ft | 142 kts | 256° |
| 2026-05-05 19:23 | 36.42602 | 28.15655 | 941 ft | 140 kts | 255° |
| 2026-05-05 19:23 | 36.42272 | 28.14529 | 755 ft | 139 kts | 255° |
| 2026-05-05 19:23 | 36.41940 | 28.13397 | 570 ft | 138 kts | 255° |
| 2026-05-05 19:23 | 36.41615 | 28.12282 | 398 ft | 137 kts | 255° |
| 2026-05-05 19:24 | 36.41291 | 28.11170 | 242 ft | 137 kts | 253° |
| 2026-05-05 19:24 | 36.40959 | 28.10068 | 47 ft | 135 kts | 252° |
| 2026-05-05 19:24 | 36.40684 | 28.09112 | 25 ft | 89 kts | 250° |
| 2026-05-05 19:24 | 36.40534 | 28.08631 | 24 ft | 31 kts | 231° |
| 2026-05-05 19:25 | 36.40488 | 28.08600 | 25 ft | 0 kts | 150° |
| 2026-05-05 19:25 | 36.40475 | 28.08633 | 26 ft | 5 kts | 106° |
| 2026-05-05 19:25 | 36.40465 | 28.08673 | 27 ft | 4 kts | 109° |
| 2026-05-05 19:25 | 36.40454 | 28.08708 | 28 ft | 5 kts | 114° |
| 2026-05-05 19:26 | 36.40431 | 28.08769 | 30 ft | 10 kts | 116° |
| 2026-05-05 19:26 | 36.40402 | 28.08866 | 34 ft | 13 kts | 99° |
| 2026-05-05 19:26 | 36.40398 | 28.08982 | 38 ft | 12 kts | 83° |
| 2026-05-05 19:26 | 36.40423 | 28.09091 | 37 ft | 14 kts | 69° |
| 2026-05-05 19:27 | 36.40445 | 28.09161 | 37 ft | 4 kts | 66° |
| 2026-05-05 19:27 | 36.40458 | 28.09200 | 38 ft | 4 kts | 68° |
| 2026-05-05 19:27 | 36.40477 | 28.09223 | 37 ft | 5 kts | 318° |
| 2026-05-05 19:27 | 36.40505 | 28.09176 | 35 ft | 8 kts | 305° |
| 2026-05-05 19:28 | 36.40512 | 28.09161 | 35 ft | 0 kts | 306° |
| 2026-05-05 19:28 | 36.40514 | 28.09160 | 35 ft | 0 kts | 310° |